createdAt,value
2022-08-07T00:00:13.704Z,16.60
2022-08-07T00:02:44.255Z,16.50
2022-08-07T00:05:13.590Z,16.50
2022-08-07T00:07:42.950Z,16.50
2022-08-07T00:10:26.838Z,16.50
2022-08-07T00:13:00.001Z,16.50
2022-08-07T00:15:37.982Z,16.50
2022-08-07T00:18:19.926Z,16.40
2022-08-07T00:20:54.274Z,16.40
2022-08-07T00:23:23.551Z,16.40
2022-08-07T00:26:00.053Z,16.30
2022-08-07T00:28:34.147Z,16.40
2022-08-07T00:31:06.043Z,16.40
2022-08-07T00:33:36.574Z,16.40
2022-08-07T00:36:08.234Z,16.30
2022-08-07T00:38:39.033Z,16.30
2022-08-07T00:41:14.682Z,16.40
2022-08-07T00:44:01.960Z,16.40
2022-08-07T00:46:32.950Z,16.40
2022-08-07T00:49:03.467Z,16.50
2022-08-07T00:51:58.150Z,16.40
2022-08-07T00:54:22.973Z,16.40
2022-08-07T00:56:53.897Z,16.40
2022-08-07T00:59:32.480Z,16.40
2022-08-07T01:02:08.904Z,16.40
2022-08-07T01:04:43.886Z,16.40
2022-08-07T01:07:13.812Z,16.40
2022-08-07T01:10:05.959Z,16.30
2022-08-07T01:12:34.478Z,16.40
2022-08-07T01:15:04.589Z,16.40
2022-08-07T01:17:35.328Z,16.50
2022-08-07T01:20:09.218Z,16.40
2022-08-07T01:22:46.468Z,16.40
2022-08-07T01:25:54.756Z,16.40
2022-08-07T01:28:12.571Z,16.30
2022-08-07T01:30:42.950Z,16.30
2022-08-07T01:33:15.571Z,16.30
2022-08-07T01:35:53.239Z,16.20
2022-08-07T01:38:29.244Z,16.20
2022-08-07T01:41:07.120Z,16.30
2022-08-07T01:43:40.455Z,16.20
2022-08-07T01:46:12.354Z,16.20
2022-08-07T01:48:46.688Z,16.30
2022-08-07T01:52:03.815Z,16.30
2022-08-07T01:54:33.354Z,16.30
2022-08-07T01:57:20.452Z,16.30
2022-08-07T01:59:58.687Z,16.30
2022-08-07T02:03:11.626Z,16.40
2022-08-07T02:05:48.281Z,16.30
2022-08-07T02:08:28.134Z,16.30
2022-08-07T02:11:03.347Z,16.20
2022-08-07T02:13:57.495Z,16.20
2022-08-07T02:16:32.867Z,16.10
2022-08-07T02:19:05.339Z,16.10
2022-08-07T02:21:56.476Z,16.10
2022-08-07T02:24:29.451Z,16.10
2022-08-07T02:27:02.632Z,16.20
2022-08-07T02:29:36.823Z,16.20
2022-08-07T02:32:23.437Z,16.30
2022-08-07T02:34:57.944Z,16.30
2022-08-07T02:37:35.931Z,16.40
2022-08-07T02:40:30.124Z,16.30
2022-08-07T02:43:07.908Z,16.40
2022-08-07T02:46:00.971Z,16.40
2022-08-07T02:48:32.148Z,16.30
2022-08-07T02:51:28.859Z,16.30
2022-08-07T02:53:59.460Z,16.30
2022-08-07T02:56:31.657Z,16.20
2022-08-07T02:59:06.019Z,16.30
2022-08-07T03:01:40.178Z,16.20
2022-08-07T03:04:15.324Z,16.20
2022-08-07T03:06:48.336Z,16.10
2022-08-07T03:09:44.625Z,16.20
2022-08-07T03:12:22.006Z,16.20
2022-08-07T03:14:57.340Z,16.20
2022-08-07T03:17:52.729Z,16.30
2022-08-07T03:20:41.621Z,16.30
2022-08-07T03:23:18.973Z,16.30
2022-08-07T03:25:50.843Z,16.40
2022-08-07T03:28:37.411Z,16.30
2022-08-07T03:31:24.410Z,16.30
2022-08-07T03:34:00.742Z,16.50
2022-08-07T03:36:34.125Z,16.80
2022-08-07T03:39:06.391Z,17.20
2022-08-07T03:41:42.288Z,17.40
2022-08-07T03:44:31.777Z,17.70
2022-08-07T03:47:13.029Z,18.10
2022-08-07T03:49:52.157Z,18.40
2022-08-07T03:52:28.682Z,18.70
2022-08-07T03:55:07.727Z,18.90
2022-08-07T03:58:33.157Z,18.80
2022-08-07T04:00:37.069Z,18.70
2022-08-07T04:03:09.981Z,18.50
2022-08-07T04:05:45.608Z,18.40
2022-08-07T04:08:21.439Z,18.30
2022-08-07T04:10:54.649Z,18.40
2022-08-07T04:14:10.775Z,18.60
2022-08-07T04:16:37.993Z,19.20
2022-08-07T04:19:15.069Z,19.80
2022-08-07T04:22:05.348Z,20.40
2022-08-07T04:24:41.541Z,20.80
2022-08-07T04:27:20.240Z,21.30
2022-08-07T04:30:01.229Z,21.60
2022-08-07T04:32:44.652Z,22.10
2022-08-07T04:35:18.892Z,22.50
2022-08-07T04:38:02.912Z,22.90
2022-08-07T04:40:36.088Z,23.30
2022-08-07T04:44:09.887Z,23.70
2022-08-07T04:46:29.448Z,24.20
2022-08-07T04:49:24.351Z,24.60
2022-08-07T04:52:06.846Z,25.10
2022-08-07T04:54:50.691Z,25.40
2022-08-07T04:58:12.004Z,25.30
2022-08-07T05:00:30.479Z,24.80
2022-08-07T05:03:17.283Z,24.60
2022-08-07T05:06:19.739Z,24.40
2022-08-07T05:09:02.164Z,25.20
2022-08-07T05:11:58.932Z,25.90
2022-08-07T05:14:53.406Z,26.50
2022-08-07T05:17:51.548Z,26.50
2022-08-07T05:20:24.965Z,25.80
2022-08-07T05:23:02.008Z,25.30
2022-08-07T05:25:36.742Z,25.20
2022-08-07T05:28:26.952Z,25.80
2022-08-07T05:31:18.907Z,25.70
2022-08-07T05:34:01.162Z,25.30
2022-08-07T05:36:36.084Z,25.90
2022-08-07T05:40:13.455Z,25.80
2022-08-07T05:42:12.438Z,25.80
2022-08-07T05:44:52.902Z,26.60
2022-08-07T05:47:38.285Z,26.90
2022-08-07T05:50:25.214Z,26.80
2022-08-07T05:52:57.097Z,26.70
2022-08-07T05:56:03.720Z,27.20
2022-08-07T05:58:18.666Z,27.30
2022-08-07T06:01:10.789Z,27.70
2022-08-07T06:03:58.954Z,27.40
2022-08-07T06:06:38.300Z,26.40
2022-08-07T06:09:17.075Z,26.00
2022-08-07T06:11:49.502Z,26.60
2022-08-07T06:14:28.904Z,27.00
2022-08-07T06:17:07.112Z,26.90
2022-08-07T06:19:52.253Z,27.00
2022-08-07T06:22:38.349Z,26.40
2022-08-07T06:25:21.996Z,27.00
2022-08-07T06:28:01.127Z,27.20
2022-08-07T06:30:37.327Z,28.20
2022-08-07T06:33:16.670Z,28.80
2022-08-07T06:36:11.725Z,29.20
2022-08-07T06:38:58.634Z,28.90
2022-08-07T06:41:58.794Z,29.30
2022-08-07T06:44:45.609Z,29.70
2022-08-07T06:47:22.212Z,29.00
2022-08-07T06:49:58.729Z,29.20
2022-08-07T06:52:39.365Z,30.00
2022-08-07T06:55:32.148Z,30.80
2022-08-07T06:58:12.501Z,31.20
2022-08-07T07:00:52.758Z,32.00
2022-08-07T07:03:26.489Z,32.50
2022-08-07T07:06:14.182Z,31.80
2022-08-07T07:08:53.204Z,31.90
2022-08-07T07:12:07.484Z,32.30
2022-08-07T07:14:15.807Z,32.70
2022-08-07T07:16:51.204Z,32.50
2022-08-07T07:19:55.612Z,31.90
2022-08-07T07:22:37.024Z,32.40
2022-08-07T07:26:31.184Z,32.20
2022-08-07T07:28:07.732Z,32.00
2022-08-07T07:31:01.229Z,32.70
2022-08-07T07:33:31.943Z,33.30
2022-08-07T07:36:13.448Z,33.60
2022-08-07T07:38:47.730Z,33.90
2022-08-07T07:41:19.413Z,34.00
2022-08-07T07:44:17.028Z,33.70
2022-08-07T07:46:55.309Z,33.90
2022-08-07T07:50:36.409Z,33.70
2022-08-07T07:52:24.727Z,34.20
2022-08-07T07:54:55.812Z,34.40
2022-08-07T07:57:43.955Z,32.50
2022-08-07T08:00:29.971Z,32.50
2022-08-07T08:03:08.694Z,33.00
2022-08-07T08:05:54.912Z,33.60
2022-08-07T08:08:36.953Z,34.10
2022-08-07T08:11:16.073Z,33.30
2022-08-07T08:13:53.741Z,32.10
2022-08-07T08:16:32.651Z,30.40
2022-08-07T08:19:18.187Z,30.60
2022-08-07T08:22:16.946Z,31.50
2022-08-07T08:25:24.959Z,30.10
2022-08-07T08:28:03.737Z,30.40
2022-08-07T08:30:35.110Z,31.30
2022-08-07T08:33:17.134Z,32.00
2022-08-07T08:35:49.953Z,32.50
2022-08-07T08:38:26.032Z,33.10
2022-08-07T08:41:09.273Z,32.70
2022-08-07T08:43:56.205Z,31.80
2022-08-07T08:46:40.845Z,30.80
2022-08-07T08:49:32.821Z,30.90
2022-08-07T08:52:13.802Z,30.90
2022-08-07T08:54:51.580Z,31.10
2022-08-07T08:57:34.171Z,30.90
2022-08-07T09:00:06.516Z,30.90
2022-08-07T09:02:49.645Z,31.40
2022-08-07T09:05:32.009Z,30.70
2022-08-07T09:08:24.144Z,30.10
2022-08-07T09:11:06.054Z,29.40
2022-08-07T09:13:49.390Z,29.30
2022-08-07T09:16:29.821Z,29.40
2022-08-07T09:19:53.503Z,30.00
2022-08-07T09:24:33.303Z,30.20
2022-08-07T09:25:17.895Z,30.90
2022-08-07T09:28:00.922Z,31.60
2022-08-07T09:30:49.692Z,32.00
2022-08-07T09:33:40.954Z,30.80
2022-08-07T09:36:35.302Z,30.10
2022-08-07T09:39:53.801Z,29.40
2022-08-07T09:42:33.395Z,29.00
2022-08-07T09:47:42.286Z,29.20
2022-08-07T09:48:29.996Z,29.00
2022-08-07T09:51:14.712Z,28.60
2022-08-07T09:54:05.423Z,28.90
2022-08-07T09:57:03.328Z,29.50
2022-08-07T10:00:04.887Z,29.90
2022-08-07T10:03:08.287Z,30.00
2022-08-07T10:06:24.444Z,30.10
2022-08-07T10:09:58.992Z,29.60
2022-08-07T10:12:53.107Z,29.80
2022-08-07T10:15:44.376Z,28.90
2022-08-07T10:18:37.959Z,27.70
2022-08-07T10:22:14.033Z,26.90
2022-08-07T10:24:41.077Z,26.70
2022-08-07T10:27:46.469Z,27.10
2022-08-07T10:30:20.250Z,27.80
2022-08-07T10:33:23.657Z,28.30
2022-08-07T10:36:29.239Z,28.60
2022-08-07T10:39:05.436Z,28.00
2022-08-07T10:41:46.406Z,28.00
2022-08-07T10:44:38.440Z,28.30
2022-08-07T10:47:26.586Z,28.20
2022-08-07T10:50:09.837Z,28.50
2022-08-07T10:52:51.871Z,28.90
2022-08-07T10:55:37.877Z,28.60
2022-08-07T10:58:33.000Z,28.00
2022-08-07T11:01:26.060Z,27.60
2022-08-07T11:04:31.513Z,27.60
2022-08-07T11:07:15.066Z,27.70
2022-08-07T11:10:09.400Z,28.10
2022-08-07T11:12:49.295Z,28.20
2022-08-07T11:15:34.584Z,27.80
2022-08-07T11:18:12.585Z,26.90
2022-08-07T11:20:49.864Z,26.80
2022-08-07T11:23:36.515Z,27.10
2022-08-07T11:26:14.995Z,27.50
2022-08-07T11:28:53.465Z,27.80
2022-08-07T11:31:35.030Z,27.70
2022-08-07T11:34:16.299Z,27.80
2022-08-07T11:37:06.862Z,27.00
2022-08-07T11:40:03.600Z,26.20
2022-08-07T11:42:47.581Z,26.20
2022-08-07T11:45:35.550Z,26.20
2022-08-07T11:48:29.779Z,25.90
2022-08-07T11:51:40.790Z,25.30
2022-08-07T11:54:25.233Z,25.00
2022-08-07T11:57:12.639Z,25.50
2022-08-07T12:00:19.104Z,26.00
2022-08-07T12:03:44.424Z,26.50
2022-08-07T12:06:37.403Z,27.10
2022-08-07T12:09:16.539Z,27.20
2022-08-07T12:12:09.958Z,27.30
2022-08-07T12:14:51.508Z,27.10
2022-08-07T12:17:35.864Z,27.20
2022-08-07T12:20:29.766Z,26.50
2022-08-07T12:24:05.273Z,25.70
2022-08-07T12:26:29.831Z,24.70
2022-08-07T12:29:09.116Z,24.60
2022-08-07T12:31:53.150Z,24.40
2022-08-07T12:34:34.883Z,24.60
2022-08-07T12:37:08.648Z,24.90
2022-08-07T12:39:50.581Z,25.20
2022-08-07T12:42:27.286Z,25.40
2022-08-07T12:45:00.150Z,25.10
2022-08-07T12:47:44.040Z,25.10
2022-08-07T12:50:38.697Z,25.50
2022-08-07T12:53:18.219Z,25.90
2022-08-07T12:56:03.010Z,26.00
2022-08-07T12:58:39.991Z,26.00
2022-08-07T13:01:28.080Z,25.60
2022-08-07T13:04:34.548Z,25.30
2022-08-07T13:07:17.951Z,25.10
2022-08-07T13:10:39.903Z,25.20
2022-08-07T13:13:48.182Z,25.20
2022-08-07T13:16:28.626Z,24.80
2022-08-07T13:19:11.368Z,24.70
2022-08-07T13:22:03.138Z,25.10
2022-08-07T13:24:52.487Z,25.30
2022-08-07T13:28:05.475Z,25.70
2022-08-07T13:30:39.965Z,25.80
2022-08-07T13:34:34.221Z,25.30
2022-08-07T13:36:17.839Z,24.50
2022-08-07T13:39:02.434Z,24.30
2022-08-07T13:41:41.946Z,24.00
2022-08-07T13:44:14.295Z,23.90
2022-08-07T13:46:49.404Z,24.00
2022-08-07T13:50:34.721Z,24.10
2022-08-07T13:52:32.507Z,24.30
2022-08-07T13:55:02.200Z,24.50
2022-08-07T13:57:38.588Z,24.80
2022-08-07T14:00:30.840Z,25.00
2022-08-07T14:03:02.592Z,24.20
2022-08-07T14:05:37.935Z,23.90
2022-08-07T14:08:09.477Z,23.70
2022-08-07T14:10:43.598Z,23.60
2022-08-07T14:13:18.101Z,23.80
2022-08-07T14:15:56.823Z,23.90
2022-08-07T14:18:33.020Z,24.00
2022-08-07T14:21:21.081Z,24.00
2022-08-07T14:24:01.981Z,24.30
2022-08-07T14:26:38.031Z,24.50
2022-08-07T14:30:06.257Z,24.80
2022-08-07T14:32:08.441Z,25.00
2022-08-07T14:34:46.280Z,25.40
2022-08-07T14:37:39.271Z,25.60
2022-08-07T14:40:26.472Z,25.80
2022-08-07T14:43:55.731Z,25.90
2022-08-07T14:45:54.690Z,26.00
2022-08-07T14:48:33.233Z,25.90
2022-08-07T14:51:15.799Z,25.50
2022-08-07T14:54:03.528Z,25.30
2022-08-07T14:56:40.596Z,25.10
2022-08-07T15:00:02.629Z,25.00
2022-08-07T15:05:19.853Z,24.40
2022-08-07T15:07:51.974Z,24.20
2022-08-07T15:13:22.668Z,23.70
2022-08-07T15:16:01.408Z,23.50
2022-08-07T15:18:36.330Z,23.30
2022-08-07T15:21:44.139Z,23.20
2022-08-07T15:25:13.619Z,23.10
2022-08-07T15:27:08.608Z,23.00
2022-08-07T15:30:04.433Z,22.80
2022-08-07T15:32:40.129Z,22.80
2022-08-07T15:38:29.816Z,22.80
2022-08-07T15:41:23.605Z,22.90
2022-08-07T15:44:02.623Z,22.90
2022-08-07T15:46:38.442Z,22.70
2022-08-07T15:49:15.220Z,22.70
2022-08-07T15:54:39.724Z,22.70
2022-08-07T15:57:28.358Z,22.70
2022-08-07T16:00:07.090Z,22.70
2022-08-07T16:02:46.743Z,22.70
2022-08-07T16:05:20.032Z,22.80
2022-08-07T16:08:33.089Z,22.90
2022-08-07T16:10:48.487Z,23.00
2022-08-07T16:14:00.008Z,22.90
2022-08-07T16:16:48.583Z,23.00
2022-08-07T16:19:59.559Z,23.00
2022-08-07T16:22:55.742Z,23.00
2022-08-07T16:25:57.250Z,22.90
2022-08-07T16:30:06.723Z,22.90
2022-08-07T16:31:57.048Z,23.00
2022-08-07T16:34:48.666Z,23.20
2022-08-07T16:38:07.443Z,23.20
2022-08-07T16:41:02.139Z,23.30
2022-08-07T16:44:04.148Z,23.30
2022-08-07T16:47:45.408Z,23.20
2022-08-07T16:50:37.005Z,23.20
2022-08-07T16:54:01.674Z,23.10
2022-08-07T16:56:37.641Z,23.20
2022-08-07T16:59:17.616Z,23.20
2022-08-07T17:01:59.782Z,23.20
2022-08-07T17:04:57.642Z,23.10
2022-08-07T17:07:51.487Z,23.10
2022-08-07T17:10:33.724Z,23.20
2022-08-07T17:14:17.496Z,23.10
2022-08-07T17:16:34.986Z,23.10
2022-08-07T17:19:15.739Z,23.10
2022-08-07T17:21:51.465Z,23.10
2022-08-07T17:24:47.346Z,23.00
2022-08-07T17:27:32.460Z,23.00
2022-08-07T17:30:14.386Z,23.00
2022-08-07T17:34:09.696Z,23.00
2022-08-07T17:36:04.170Z,23.00
2022-08-07T17:38:52.747Z,23.00
2022-08-07T17:42:02.740Z,22.90
2022-08-07T17:44:42.814Z,22.90
2022-08-07T17:47:38.321Z,22.80
2022-08-07T17:50:19.078Z,22.80
2022-08-07T17:52:59.739Z,22.80
2022-08-07T17:56:01.248Z,22.70
2022-08-07T17:58:33.302Z,22.70
2022-08-07T18:01:21.469Z,22.70
2022-08-07T18:04:34.661Z,22.50
2022-08-07T18:07:24.323Z,22.50
2022-08-07T18:10:05.643Z,22.50
2022-08-07T18:12:53.233Z,22.50
2022-08-07T18:15:32.966Z,22.30
2022-08-07T18:18:36.686Z,22.20
2022-08-07T18:21:38.232Z,22.20
2022-08-07T18:24:07.388Z,22.10
2022-08-07T18:27:22.278Z,22.10
2022-08-07T18:30:05.886Z,22.00
2022-08-07T18:33:15.081Z,21.80
2022-08-07T18:35:57.494Z,21.80
2022-08-07T18:38:58.181Z,21.70
2022-08-07T18:41:45.151Z,21.70
2022-08-07T18:44:30.555Z,21.60
2022-08-07T18:47:10.216Z,21.60
2022-08-07T18:50:40.818Z,21.50
2022-08-07T18:53:36.559Z,21.40
2022-08-07T18:56:18.175Z,21.30
2022-08-07T18:59:01.196Z,21.30
2022-08-07T19:02:32.725Z,21.30
2022-08-07T19:04:57.764Z,21.30
2022-08-07T19:07:51.758Z,21.30
2022-08-07T19:10:32.015Z,21.40
2022-08-07T19:13:26.106Z,21.40
2022-08-07T19:17:01.361Z,21.40
2022-08-07T19:19:02.065Z,21.40
2022-08-07T19:21:47.411Z,21.40
2022-08-07T19:24:32.173Z,21.30
2022-08-07T19:28:56.430Z,21.30
2022-08-07T19:31:00.911Z,21.30
2022-08-07T19:32:59.189Z,21.30
2022-08-07T19:35:33.753Z,21.30
2022-08-07T19:38:05.705Z,21.20
2022-08-07T19:40:49.981Z,21.20
2022-08-07T19:43:43.693Z,21.20
2022-08-07T19:46:18.989Z,21.20
2022-08-07T19:48:54.598Z,21.20
2022-08-07T19:51:52.517Z,21.10
2022-08-07T19:54:34.867Z,21.00
2022-08-07T19:58:02.614Z,21.00
2022-08-07T20:00:10.083Z,20.90
2022-08-07T20:02:52.130Z,20.80
2022-08-07T20:05:27.809Z,20.90
2022-08-07T20:08:01.954Z,20.80
2022-08-07T20:10:51.607Z,20.80
2022-08-07T20:13:34.648Z,20.80
2022-08-07T20:16:07.976Z,20.70
2022-08-07T20:18:54.647Z,20.70
2022-08-07T20:21:29.092Z,20.70
2022-08-07T20:24:23.509Z,20.60
2022-08-07T20:26:56.790Z,20.60
2022-08-07T20:29:49.072Z,20.50
2022-08-07T20:32:25.664Z,20.50
2022-08-07T20:35:00.160Z,20.40
2022-08-07T20:37:33.894Z,20.40
2022-08-07T20:40:32.120Z,20.30
2022-08-07T20:42:59.871Z,20.20
2022-08-07T20:46:26.820Z,20.30
2022-08-07T20:48:29.993Z,20.20
2022-08-07T20:51:02.064Z,20.10
2022-08-07T20:54:03.693Z,20.00
2022-08-07T20:56:28.379Z,20.00
2022-08-07T20:59:02.707Z,19.90
2022-08-07T21:01:46.052Z,19.90
2022-08-07T21:04:29.998Z,19.90
2022-08-07T21:07:03.943Z,19.80
2022-08-07T21:09:53.093Z,19.80
2022-08-07T21:12:33.276Z,19.80
2022-08-07T21:15:08.501Z,19.90
2022-08-07T21:18:20.640Z,19.80
2022-08-07T21:20:33.366Z,19.70
2022-08-07T21:23:09.433Z,19.70
2022-08-07T21:25:52.249Z,19.60
2022-08-07T21:28:49.556Z,19.60
2022-08-07T21:32:10.974Z,19.50
2022-08-07T21:34:48.203Z,19.40
2022-08-07T21:37:23.206Z,19.40
2022-08-07T21:39:59.343Z,19.40
2022-08-07T21:42:46.506Z,19.40
2022-08-07T21:46:03.449Z,19.40
2022-08-07T21:48:29.199Z,19.20
2022-08-07T21:51:20.065Z,19.20
2022-08-07T21:53:56.506Z,19.20
2022-08-07T21:56:47.917Z,19.10
2022-08-07T21:59:36.452Z,19.10
2022-08-07T22:02:29.340Z,19.00
2022-08-07T22:05:02.932Z,19.00
2022-08-07T22:07:58.024Z,18.90
2022-08-07T22:10:32.865Z,18.90
2022-08-07T22:13:09.238Z,18.80
2022-08-07T22:16:40.007Z,18.70
2022-08-07T22:18:40.937Z,18.60
2022-08-07T22:21:19.272Z,18.60
2022-08-07T22:23:54.213Z,18.60
2022-08-07T22:26:30.013Z,18.60
2022-08-07T22:29:13.712Z,18.60
2022-08-07T22:32:00.077Z,18.60
2022-08-07T22:34:41.999Z,18.50
2022-08-07T22:38:02.777Z,18.50
2022-08-07T22:40:29.848Z,18.50
2022-08-07T22:43:04.230Z,18.50
2022-08-07T22:46:21.503Z,18.40
2022-08-07T22:48:55.630Z,18.40
2022-08-07T22:52:00.677Z,18.30
2022-08-07T22:55:17.409Z,18.20
2022-08-07T22:58:06.055Z,18.20
2022-08-07T23:00:43.848Z,18.10
2022-08-07T23:03:58.111Z,18.10
2022-08-07T23:06:59.548Z,18.00
2022-08-07T23:10:06.080Z,18.00
2022-08-07T23:12:43.269Z,17.90
2022-08-07T23:16:04.634Z,17.90
2022-08-07T23:18:23.900Z,17.80
2022-08-07T23:21:29.851Z,17.80
2022-08-07T23:24:45.783Z,17.50
2022-08-07T23:28:20.107Z,17.40
2022-08-07T23:30:43.252Z,17.40
2022-08-07T23:34:23.050Z,17.30
2022-08-07T23:36:37.903Z,17.30
2022-08-07T23:39:14.169Z,17.30
2022-08-07T23:42:04.247Z,17.30
2022-08-07T23:45:04.827Z,17.40
2022-08-07T23:47:51.809Z,17.30
2022-08-07T23:50:46.518Z,17.30
2022-08-07T23:53:51.515Z,17.30
2022-08-07T23:56:23.269Z,17.20
2022-08-07T23:59:10.951Z,17.20
